Time;durP1;ratioP1;P1;durP2;ratioP2;P2;SDS_P1;SDS_P2;PMS_P1;PMS_P2;Temp;Humidity;BMP_temperature;BMP_pressure;BME280_temperature;BME280_humidity;BME280_pressure;Samples;Min_cycle;Max_cycle;Signal;HPM_P1;HPM_P2
2022/12/31 00:01:29;;;;;;;8.23;3.42;;;;;;;11.21;100.00;100104.56;4999953;28;20138;-96
2022/12/31 00:03:58;;;;;;;10.20;4.50;;;;;;;11.08;100.00;100101.38;5016813;28;20481;-94
2022/12/31 00:06:35;;;;;;;9.15;4.55;;;;;;;11.05;100.00;100099.38;5006194;28;20110;-94
2022/12/31 00:09:07;;;;;;;10.73;4.10;;;;;;;11.10;100.00;100107.38;5003839;28;20030;-94
2022/12/31 00:11:34;;;;;;;15.10;4.97;;;;;;;11.12;100.00;100107.78;4992577;28;20482;-96
2022/12/31 00:14:00;;;;;;;8.30;3.95;;;;;;;11.19;100.00;100101.38;4993797;28;20053;-95
2022/12/31 00:16:32;;;;;;;8.45;3.55;;;;;;;11.17;100.00;100131.78;4995617;28;20061;-96
2022/12/31 00:18:59;;;;;;;7.50;3.40;;;;;;;11.22;100.00;100122.97;5008322;28;20034;-96
2022/12/31 00:21:27;;;;;;;8.55;4.03;;;;;;;11.08;100.00;100101.38;4992216;28;20038;-95
2022/12/31 00:23:53;;;;;;;10.75;4.72;;;;;;;11.19;100.00;100116.19;4983645;28;20138;-95
2022/12/31 00:26:21;;;;;;;9.63;3.75;;;;;;;11.30;100.00;100129.38;5003694;28;20046;-96
2022/12/31 00:28:47;;;;;;;8.40;4.10;;;;;;;11.17;100.00;100131.78;5001685;28;20023;-95
2022/12/31 00:31:19;;;;;;;9.18;4.70;;;;;;;11.17;100.00;100137.38;4988709;28;20121;-95
2022/12/31 00:33:44;;;;;;;6.80;3.40;;;;;;;11.14;100.00;100138.97;5004714;28;20647;-96
2022/12/31 00:36:16;;;;;;;11.60;4.38;;;;;;;11.23;100.00;100146.97;4986600;28;20034;-95
2022/12/31 00:38:43;;;;;;;11.40;4.03;;;;;;;10.99;100.00;100114.97;5007225;28;20037;-95
2022/12/31 00:41:09;;;;;;;6.63;4.35;;;;;;;11.06;100.00;100117.78;5005266;28;20022;-95
2022/12/31 00:43:35;;;;;;;7.70;4.57;;;;;;;11.06;100.00;100125.38;5002659;28;20033;-95
2022/12/31 00:46:01;;;;;;;8.32;4.53;;;;;;;11.13;100.00;100136.56;4988415;28;20061;-95
2022/12/31 00:48:27;;;;;;;10.45;3.58;;;;;;;11.10;100.00;100132.59;4992864;28;20030;-94
2022/12/31 00:50:54;;;;;;;6.22;3.42;;;;;;;11.03;100.00;100124.19;4992403;28;20129;-95
2022/12/31 00:53:20;;;;;;;4.53;3.40;;;;;;;11.12;100.00;100135.00;5006689;28;20026;-95
2022/12/31 00:55:45;;;;;;;5.38;3.13;;;;;;;10.97;100.00;100109.78;5006403;28;20049;-94
2022/12/31 00:58:11;;;;;;;7.47;3.13;;;;;;;10.97;100.00;100128.59;5007181;28;20703;-95
2022/12/31 01:00:38;;;;;;;7.20;2.70;;;;;;;10.96;100.00;100126.97;4988278;28;20015;-96
2022/12/31 01:03:06;;;;;;;7.20;3.42;;;;;;;11.08;100.00;100142.59;4993391;28;20269;-94
2022/12/31 01:05:33;;;;;;;6.85;2.67;;;;;;;10.86;100.00;100128.56;5009458;28;20078;-92
2022/12/31 01:07:59;;;;;;;7.38;3.13;;;;;;;10.88;100.00;100128.16;4989921;28;20034;-93
2022/12/31 01:13:09;;;;;;;3.72;2.05;;;;;;;10.76;100.00;100132.16;4988781;28;20434;-93
2022/12/31 01:15:36;;;;;;;6.60;2.70;;;;;;;10.92;100.00;100148.56;4984771;28;20026;-94
2022/12/31 01:18:07;;;;;;;5.15;2.90;;;;;;;10.77;100.00;100137.38;4987146;28;20022;-94
2022/12/31 01:20:40;;;;;;;4.40;2.42;;;;;;;10.80;100.00;100140.56;4980422;28;20030;-94
2022/12/31 01:23:07;;;;;;;5.63;2.30;;;;;;;10.88;100.00;100150.56;4978799;28;20031;-93
2022/12/31 01:25:37;;;;;;;3.38;2.42;;;;;;;10.69;100.00;100135.75;4987245;28;20030;-92
2022/12/31 01:28:05;;;;;;;7.63;2.58;;;;;;;10.80;100.00;100146.16;4984932;28;20122;-92
2022/12/31 01:30:30;;;;;;;4.22;2.70;;;;;;;10.86;100.00;100164.19;4985438;28;20037;-93
2022/12/31 01:32:56;;;;;;;4.57;2.63;;;;;;;10.74;100.00;100149.34;4994122;28;20030;-92
2022/12/31 01:35:21;;;;;;;6.60;2.58;;;;;;;10.90;100.00;100178.97;4978782;28;20026;-93
2022/12/31 01:37:47;;;;;;;5.82;2.47;;;;;;;10.65;100.00;100146.13;4987199;28;20026;-91
2022/12/31 01:40:12;;;;;;;7.15;3.33;;;;;;;10.81;100.00;100176.53;4988031;28;20077;-92
2022/12/31 01:42:38;;;;;;;5.22;2.55;;;;;;;10.70;100.00;100159.72;4989122;28;20367;-90
2022/12/31 01:45:09;;;;;;;5.63;2.83;;;;;;;10.75;100.00;100176.16;4989824;28;20028;-92
2022/12/31 01:47:48;;;;;;;8.88;3.13;;;;;;;10.85;100.00;100187.75;4982832;28;20038;-91
2022/12/31 01:50:13;;;;;;;8.27;2.95;;;;;;;10.85;100.00;100182.16;4985768;28;20462;-92
2022/12/31 01:52:46;;;;;;;5.90;2.50;;;;;;;10.64;100.00;100144.53;4990545;28;20037;-91
2022/12/31 01:55:24;;;;;;;10.73;3.42;;;;;;;10.70;100.00;100154.13;4992602;28;20057;-92
2022/12/31 01:57:53;;;;;;;7.20;3.33;;;;;;;10.69;100.00;100158.13;4980672;28;20121;-91
2022/12/31 02:00:19;;;;;;;8.40;3.53;;;;;;;10.67;100.00;100148.53;4988173;28;20053;-91
2022/12/31 02:02:45;;;;;;;7.70;2.90;;;;;;;10.68;100.00;100156.53;4991583;28;20064;-92
2022/12/31 02:05:31;;;;;;;5.97;3.95;;;;;;;10.70;100.00;100153.34;5001443;28;20570;-93
2022/12/31 02:07:58;;;;;;;8.38;3.75;;;;;;;10.65;100.00;100148.13;4997587;28;20026;-91
2022/12/31 02:10:23;;;;;;;10.52;3.85;;;;;;;10.71;100.00;100166.13;4989412;28;20045;-91
2022/12/31 02:12:49;;;;;;;8.82;4.15;;;;;;;10.73;100.00;100174.91;4985034;28;20030;-91
2022/12/31 02:15:16;;;;;;;5.68;3.72;;;;;;;10.53;100.00;100143.69;4982008;28;20066;-92
2022/12/31 02:17:52;;;;;;;8.10;3.65;;;;;;;10.52;100.00;100148.50;4982749;28;20034;-92
2022/12/31 02:20:41;;;;;;;7.75;3.28;;;;;;;10.66;100.00;100158.91;4981182;28;20041;-92
2022/12/31 02:23:12;;;;;;;6.28;3.80;;;;;;;10.74;100.00;100177.34;5002001;28;20034;-92
2022/12/31 02:26:03;;;;;;;14.77;4.07;;;;;;;10.71;100.00;100172.53;5001364;28;20479;-92
2022/12/31 02:28:37;;;;;;;8.40;3.53;;;;;;;10.70;100.00;100158.94;5001694;28;20107;-90
2022/12/31 02:31:17;;;;;;;6.35;4.25;;;;;;;10.71;100.00;100161.34;4989296;28;20501;-90
2022/12/31 02:33:51;;;;;;;9.90;5.05;;;;;;;10.68;100.00;100162.13;4986315;28;20038;-91
2022/12/31 02:36:25;;;;;;;9.00;3.45;;;;;;;10.69;100.00;100146.94;4983659;28;20053;-90
2022/12/31 02:38:51;;;;;;;9.27;3.25;;;;;;;10.65;100.00;100151.72;4988736;28;20512;-89
2022/12/31 02:44:25;;;;;;;7.13;3.78;;;;;;;10.70;100.00;100151.34;4986344;28;20041;-90
2022/12/31 02:47:07;;;;;;;8.27;3.67;;;;;;;10.65;100.00;100129.34;4987248;28;20030;-90
2022/12/31 02:49:49;;;;;;;14.10;4.50;;;;;;;10.63;100.00;100126.13;4998059;28;20026;-90
2022/12/31 02:52:25;;;;;;;12.25;3.60;;;;;;;10.52;100.00;100106.53;4987159;28;20034;-91
2022/12/31 02:55:22;;;;;;;8.07;3.63;;;;;;;10.70;100.00;100140.13;4983568;28;20033;-91
2022/12/31 02:57:53;;;;;;;9.23;2.88;;;;;;;10.60;100.00;100120.53;4986728;28;20062;-91
2022/12/31 03:03:05;;;;;;;7.07;2.67;;;;;;;10.56;100.00;100137.28;4986815;28;20033;-94
2022/12/31 03:05:36;;;;;;;7.88;3.22;;;;;;;10.48;100.00;100114.13;4984806;28;20061;-93
2022/12/31 03:08:01;;;;;;;6.82;2.67;;;;;;;10.62;100.00;100135.72;4996882;28;20239;-94
2022/12/31 03:10:27;;;;;;;5.35;2.85;;;;;;;10.51;100.00;100123.72;4986401;28;20067;-94
2022/12/31 03:12:52;;;;;;;6.35;2.90;;;;;;;10.72;100.00;100157.34;4982879;28;20092;-94
2022/12/31 03:15:19;;;;;;;8.68;3.95;;;;;;;10.70;100.00;100156.94;4980924;28;20030;-93
2022/12/31 03:17:54;;;;;;;6.30;2.53;;;;;;;10.61;100.00;100156.50;4998758;28;20034;-94
2022/12/31 03:23:10;;;;;;;4.30;2.25;;;;;;;10.58;100.00;100160.91;4983113;28;20078;-96
2022/12/31 03:25:38;;;;;;;3.78;2.60;;;;;;;10.59;100.00;100158.91;4978753;28;20033;-95
2022/12/31 03:28:10;;;;;;;4.18;1.85;;;;;;;10.47;100.00;100134.88;4980059;28;20446;-95
2022/12/31 03:30:38;;;;;;;5.18;2.65;;;;;;;10.50;100.00;100144.50;4996843;28;20034;-94
2022/12/31 03:33:05;;;;;;;10.48;2.20;;;;;;;10.53;100.00;100143.69;4981867;28;20022;-94
2022/12/31 03:35:32;;;;;;;4.07;1.85;;;;;;;10.48;100.00;100138.50;4979795;28;20065;-95
2022/12/31 03:37:58;;;;;;;4.88;2.05;;;;;;;10.41;100.00;100130.06;4981897;28;20034;-95
2022/12/31 03:40:25;;;;;;;7.55;1.98;;;;;;;10.41;100.00;100118.88;4995818;28;20053;-94
2022/12/31 03:42:50;;;;;;;7.28;1.75;;;;;;;10.58;100.00;100165.69;4979407;28;20161;-94
2022/12/31 03:45:16;;;;;;;7.07;2.50;;;;;;;10.51;100.00;100160.09;4985035;28;20157;-94
2022/12/31 03:47:41;;;;;;;7.55;1.90;;;;;;;10.45;100.00;100144.88;4982865;28;20030;-96
2022/12/31 03:50:09;;;;;;;7.40;1.85;;;;;;;10.50;100.00;100162.09;4983181;28;20026;-95
2022/12/31 03:52:34;;;;;;;6.82;1.85;;;;;;;10.45;100.00;100158.88;4986465;28;20030;-94
2022/12/31 03:55:01;;;;;;;8.20;3.25;;;;;;;10.45;100.00;100164.47;4982241;28;20378;-94
2022/12/31 03:57:27;;;;;;;4.70;2.10;;;;;;;10.55;100.00;100174.88;4999730;28;20538;-95
2022/12/31 03:59:53;;;;;;;6.07;2.17;;;;;;;10.42;100.00;100148.47;4984923;28;20034;-94
2022/12/31 04:02:18;;;;;;;7.30;2.13;;;;;;;10.44;100.00;100158.06;4982405;28;20030;-92
2022/12/31 04:04:44;;;;;;;5.82;2.92;;;;;;;10.50;100.00;100190.06;4998481;28;20244;-93
2022/12/31 04:07:09;;;;;;;6.80;2.70;;;;;;;10.44;100.00;100174.06;4989095;28;20030;-93
2022/12/31 04:09:35;;;;;;;3.35;1.75;;;;;;;10.46;100.00;100171.66;5000688;28;20478;-93
2022/12/31 04:12:01;;;;;;;6.78;2.42;;;;;;;10.42;100.00;100145.69;4978217;28;20037;-93
2022/12/31 04:14:26;;;;;;;3.50;2.30;;;;;;;10.57;100.00;100172.50;4987280;28;20035;-93
2022/12/31 04:16:54;;;;;;;5.00;1.92;;;;;;;10.45;100.00;100147.66;4984244;28;20034;-93
2022/12/31 04:19:20;;;;;;;7.57;2.30;;;;;;;10.37;100.00;100142.06;4987390;28;20499;-93
2022/12/31 04:21:45;;;;;;;9.65;2.97;;;;;;;10.45;100.00;100147.66;4987948;28;20109;-93
2022/12/31 04:24:11;;;;;;;6.68;2.85;;;;;;;10.50;100.00;100150.09;4990393;28;20475;-92
2022/12/31 04:26:37;;;;;;;8.00;2.60;;;;;;;10.47;100.00;100140.47;4991376;28;20116;-93
2022/12/31 04:29:03;;;;;;;4.53;2.72;;;;;;;10.32;100.00;100117.25;4988535;28;20375;-93
2022/12/31 04:31:34;;;;;;;10.00;3.70;;;;;;;10.35;100.00;100115.66;4990491;28;20046;-92
2022/12/31 04:33:59;;;;;;;3.97;2.70;;;;;;;10.34;100.00;100105.69;4988989;28;20050;-93
2022/12/31 04:36:25;;;;;;;6.40;3.22;;;;;;;10.31;100.00;100117.66;4992468;28;20482;-95
2022/12/31 04:38:51;;;;;;;10.00;3.92;;;;;;;10.31;100.00;100101.69;4988406;28;20018;-92
2022/12/31 04:41:16;;;;;;;5.55;2.70;;;;;;;10.38;100.00;100126.06;5008730;28;20478;-93
2022/12/31 04:43:46;;;;;;;7.15;3.40;;;;;;;10.33;100.00;100109.66;4990748;28;20044;-93
2022/12/31 04:49:03;;;;;;;5.47;2.65;;;;;;;10.43;100.00;100133.28;4991192;28;20037;-92
2022/12/31 04:51:29;;;;;;;8.18;3.38;;;;;;;10.39;100.00;100133.25;4988667;28;20038;-92
2022/12/31 04:53:58;;;;;;;7.32;2.83;;;;;;;10.38;100.00;100138.06;4991615;28;20057;-92
2022/12/31 04:56:29;;;;;;;8.80;2.78;;;;;;;10.37;100.00;100142.06;4991573;28;20489;-93
2022/12/31 04:58:55;;;;;;;8.38;3.92;;;;;;;10.30;100.00;100130.84;5009196;28;20410;-92
2022/12/31 05:01:21;;;;;;;5.97;2.22;;;;;;;10.27;100.00;100130.81;4991269;28;20120;-90
2022/12/31 05:03:46;;;;;;;4.47;2.47;;;;;;;10.41;100.00;100152.44;4991455;28;20026;-91
2022/12/31 05:06:15;;;;;;;5.15;2.85;;;;;;;10.31;100.00;100149.22;4989465;28;20056;-90
2022/12/31 05:08:41;;;;;;;6.75;2.33;;;;;;;10.36;100.00;100157.22;4989234;28;20362;-90
2022/12/31 05:11:07;;;;;;;5.18;2.00;;;;;;;10.35;100.00;100152.84;4986752;28;20066;-90
2022/12/31 05:13:32;;;;;;;3.78;1.98;;;;;;;10.43;100.00;100169.66;4984659;28;20034;-90
2022/12/31 05:15:58;;;;;;;5.38;2.92;;;;;;;10.31;100.00;100154.81;4989294;28;20034;-91
2022/12/31 05:18:23;;;;;;;4.32;2.25;;;;;;;10.29;100.00;100153.59;4983180;28;20033;-91
2022/12/31 05:20:49;;;;;;;3.95;1.77;;;;;;;10.28;100.00;100149.97;4978042;28;20023;-90
2022/12/31 05:23:15;;;;;;;3.45;1.83;;;;;;;10.43;100.00;100175.25;4979370;28;20686;-91
2022/12/31 05:25:42;;;;;;;2.20;1.88;;;;;;;10.24;100.00;100129.56;4977022;28;20728;-91
2022/12/31 05:28:08;;;;;;;4.15;1.73;;;;;;;10.42;100.00;100159.66;4977645;28;20471;-91
2022/12/31 05:30:33;;;;;;;2.10;1.75;;;;;;;10.38;100.00;100160.44;4996532;28;21107;-91
2022/12/31 05:32:59;;;;;;;5.38;1.98;;;;;;;10.26;100.00;100146.78;4983257;28;20031;-91
2022/12/31 05:35:25;;;;;;;5.72;1.92;;;;;;;10.33;100.00;100171.19;4981923;28;20030;-91
2022/12/31 05:37:50;;;;;;;6.32;2.25;;;;;;;10.36;100.00;100168.41;4999127;28;20114;-91
2022/12/31 05:40:16;;;;;;;3.70;2.40;;;;;;;10.20;100.00;100139.94;4981745;28;20070;-91
2022/12/31 05:42:41;;;;;;;7.57;2.03;;;;;;;10.36;100.00;100181.63;4986943;28;20026;-92
2022/12/31 05:45:08;;;;;;;4.53;3.03;;;;;;;10.35;100.00;100180.81;4990157;28;20147;-92
2022/12/31 05:47:40;;;;;;;4.15;1.58;;;;;;;10.20;100.00;100153.94;4988690;28;20065;-93
2022/12/31 05:50:08;;;;;;;5.40;2.03;;;;;;;10.30;100.00;100174.78;5000161;28;20133;-93
2022/12/31 05:52:34;;;;;;;6.15;2.25;;;;;;;10.24;100.00;100146.34;4984459;28;20042;-93
2022/12/31 05:54:59;;;;;;;2.35;1.88;;;;;;;10.18;100.00;100140.38;4995927;28;20038;-93
2022/12/31 05:57:25;;;;;;;4.55;1.92;;;;;;;10.34;100.00;100170.00;4985861;28;20026;-93
2022/12/31 05:59:52;;;;;;;2.83;1.92;;;;;;;10.22;100.00;100168.31;4982844;28;21038;-93
2022/12/31 06:02:20;;;;;;;3.47;2.05;;;;;;;10.24;100.00;100177.13;4973705;28;20027;-92
2022/12/31 06:04:45;;;;;;;4.45;1.90;;;;;;;10.16;100.00;100158.72;4982367;28;20394;-93
2022/12/31 06:07:13;;;;;;;2.67;1.88;;;;;;;10.14;100.00;100152.72;4997398;28;20034;-92
2022/12/31 06:09:39;;;;;;;3.60;1.85;;;;;;;10.17;100.00;100163.13;4999138;28;20571;-92
2022/12/31 06:12:07;;;;;;;6.18;1.88;;;;;;;10.22;100.00;100162.72;4986935;28;20033;-92
2022/12/31 06:14:33;;;;;;;2.92;2.15;;;;;;;10.18;100.00;100162.75;4987808;28;20034;-91
2022/12/31 06:16:59;;;;;;;3.80;2.38;;;;;;;10.18;100.00;100171.13;4987292;28;20038;-92
2022/12/31 06:19:24;;;;;;;2.25;1.90;;;;;;;10.17;100.00;100177.09;4985271;28;20117;-92
2022/12/31 06:21:50;;;;;;;3.47;2.00;;;;;;;10.23;100.00;100186.72;4988528;28;20026;-92
2022/12/31 06:24:16;;;;;;;5.55;2.67;;;;;;;10.21;100.00;100177.94;4981321;28;20033;-92
2022/12/31 06:26:41;;;;;;;2.42;1.77;;;;;;;10.36;100.00;100185.19;4981634;28;20066;-92
2022/12/31 06:29:09;;;;;;;3.47;2.00;;;;;;;10.14;100.00;100161.09;4986948;28;20042;-92
2022/12/31 06:31:35;;;;;;;2.90;1.95;;;;;;;10.24;100.00;100176.34;4982211;28;20383;-92
2022/12/31 06:34:05;;;;;;;3.58;1.60;;;;;;;10.33;100.00;100191.59;5005388;28;20544;-93
2022/12/31 06:36:40;;;;;;;2.40;1.50;;;;;;;10.29;100.00;100188.00;4985227;28;20030;-93
2022/12/31 06:39:14;;;;;;;2.55;1.80;;;;;;;10.22;100.00;100165.53;4999406;28;20109;-94
2022/12/31 06:41:46;;;;;;;3.08;1.58;;;;;;;10.22;100.00;100154.34;4981455;28;20053;-93
2022/12/31 06:44:11;;;;;;;3.13;2.20;;;;;;;10.14;100.00;100149.91;5000571;28;20434;-92
2022/12/31 06:46:37;;;;;;;5.65;1.88;;;;;;;10.15;100.00;100152.31;4985652;28;20099;-93
2022/12/31 06:49:02;;;;;;;3.85;2.25;;;;;;;10.28;100.00;100163.97;4986728;28;20038;-93
2022/12/31 06:51:38;;;;;;;1.95;1.70;;;;;;;10.19;100.00;100149.56;4983925;28;20057;-94
2022/12/31 06:54:04;;;;;;;2.55;1.65;;;;;;;10.34;100.00;100168.00;4999626;28;20030;-94
2022/12/31 06:56:35;;;;;;;2.00;1.58;;;;;;;10.23;100.00;100166.34;4997567;28;20034;-95
2022/12/31 06:59:02;;;;;;;4.28;1.83;;;;;;;10.28;100.00;100155.56;4987186;28;20038;-92
2022/12/31 07:01:33;;;;;;;2.78;1.60;;;;;;;10.43;100.00;100178.03;4986498;28;20038;-92
2022/12/31 07:04:10;;;;;;;3.58;1.80;;;;;;;10.43;100.00;100186.44;4996000;28;20035;-91
2022/12/31 07:06:47;;;;;;;4.15;1.90;;;;;;;10.38;100.00;100177.22;4982702;28;20055;-91
2022/12/31 07:09:46;;;;;;;3.35;2.10;;;;;;;10.30;100.00;100150.41;4983186;28;20531;-91
2022/12/31 07:12:28;;;;;;;4.30;2.35;;;;;;;10.32;100.00;100155.63;4976116;28;20074;-91
2022/12/31 07:15:03;;;;;;;3.90;2.30;;;;;;;10.46;100.00;100166.06;4998407;28;20031;-91
2022/12/31 07:18:05;;;;;;;5.10;2.53;;;;;;;10.62;100.00;100179.69;4994344;28;20038;-92
2022/12/31 07:20:31;;;;;;;4.38;2.40;;;;;;;10.49;100.00;100165.28;4976523;28;20027;-91
2022/12/31 07:22:56;;;;;;;5.85;3.15;;;;;;;10.46;100.00;100155.69;4977710;28;20084;-94
2022/12/31 07:25:22;;;;;;;5.97;2.85;;;;;;;10.62;100.00;100171.31;4978694;28;20037;-92
2022/12/31 07:28:20;;;;;;;4.30;2.72;;;;;;;10.63;100.00;100168.13;4979483;28;20170;-92
2022/12/31 07:31:30;;;;;;;4.50;3.00;;;;;;;10.76;100.00;100176.94;4957173;28;20513;-92
2022/12/31 07:34:06;;;;;;;4.40;2.72;;;;;;;10.85;100.00;100179.34;4937578;28;20497;-94
2022/12/31 07:36:49;;;;;;;5.10;2.55;;;;;;;10.78;100.00;100161.34;4979777;28;20038;-93
2022/12/31 07:39:24;;;;;;;;;;;;;;;10.95;100.00;100187.78;4978093;28;20512;-89
2022/12/31 07:42:08;;;;;;;4.80;2.90;;;;;;;10.85;100.00;100160.56;4999814;28;20429;-92
2022/12/31 07:44:40;;;;;;;4.40;2.78;;;;;;;11.07;100.00;100181.00;4978666;28;20030;-92
2022/12/31 07:47:21;;;;;;;5.13;2.50;;;;;;;11.08;100.00;100171.38;4998930;28;20030;-93
2022/12/31 07:49:47;;;;;;;5.60;3.03;;;;;;;11.13;100.00;100170.19;4983211;28;20046;-94
2022/12/31 07:52:31;;;;;;;4.15;2.80;;;;;;;11.00;100.00;100152.97;4982444;28;20390;-94
2022/12/31 07:55:11;;;;;;;6.05;3.35;;;;;;;11.06;100.00;100164.59;4981320;28;20121;-93
2022/12/31 07:58:01;;;;;;;6.88;3.20;;;;;;;11.41;100.00;100203.03;4977951;28;20041;-94
2022/12/31 08:00:28;;;;;;;4.57;3.42;;;;;;;11.26;100.00;100184.59;4997904;28;20030;-93
2022/12/31 08:03:07;;;;;;;4.97;3.28;;;;;;;11.37;100.00;100191.03;4986505;28;20133;-92
2022/12/31 08:05:48;;;;;;;7.72;4.18;;;;;;;11.30;100.00;100203.03;4999407;28;20457;-92
2022/12/31 08:08:31;;;;;;;8.02;3.65;;;;;;;11.24;100.00;100181.41;4999253;28;20034;-93
2022/12/31 08:11:16;;;;;;;5.57;3.45;;;;;;;11.40;100.00;100195.81;4983288;28;20034;-93
2022/12/31 08:13:42;;;;;;;8.95;4.30;;;;;;;11.42;100.00;100190.59;4984475;28;20084;-92
2022/12/31 08:16:12;;;;;;;8.40;3.83;;;;;;;11.56;100.00;100210.22;5007936;28;20026;-94
2022/12/31 08:18:38;;;;;;;8.50;4.55;;;;;;;11.51;100.00;100188.22;5004516;28;20034;-93
2022/12/31 08:21:09;;;;;;;6.78;4.00;;;;;;;11.50;100.00;100189.41;4990069;28;20034;-94
2022/12/31 08:23:47;;;;;;;3.67;3.15;;;;;;;11.65;100.00;100217.44;5001415;28;20030;-93
2022/12/31 08:26:28;;;;;;;4.75;2.95;;;;;;;11.66;100.00;100214.25;5000437;28;20073;-95
2022/12/31 08:29:28;;;;;;;4.43;3.15;;;;;;;11.73;100.00;100213.44;5001195;28;20049;-95
2022/12/31 08:32:45;;;;;;;4.32;2.95;;;;;;;11.69;100.00;100210.63;4968441;28;20038;-95
2022/12/31 08:35:29;;;;;;;3.25;2.10;;;;;;;11.89;100.00;100222.25;4959847;28;20034;-96
2022/12/31 08:38:13;;;;;;;3.03;2.20;;;;;;;11.71;100.00;100188.59;4996591;28;20033;-95
2022/12/31 08:40:56;;;;;;;3.17;2.17;;;;;;;11.89;100.00;100227.88;5007531;28;20092;-94
2022/12/31 08:43:40;;;;;;;;;;;;;;;11.90;100.00;100218.22;4989182;28;20026;-95
2022/12/31 08:46:20;;;;;;;3.05;2.40;;;;;;;11.92;100.00;100224.25;4991257;28;20409;-94
2022/12/31 08:48:47;;;;;;;4.53;2.20;;;;;;;11.89;100.00;100204.59;5013219;28;20125;-93
2022/12/31 08:51:29;;;;;;;5.63;2.70;;;;;;;11.74;100.00;100212.22;5013640;28;20034;-96
2022/12/31 08:53:55;;;;;;;5.35;1.98;;;;;;;11.98;100.00;100242.25;4983331;28;20046;-96
2022/12/31 08:56:58;;;;;;;1.83;1.65;;;;;;;11.87;100.00;100238.66;4998392;28;20034;-95
2022/12/31 08:59:26;;;;;;;;;;;;;;;12.12;100.00;100263.06;4964199;28;20034;-94
2022/12/31 09:02:13;;;;;;;5.68;1.80;;;;;;;11.97;100.00;100257.50;5004605;28;19942;-93
2022/12/31 09:05:08;;;;;;;2.83;1.70;;;;;;;11.80;100.00;100214.22;4999052;28;20846;-94
2022/12/31 09:08:22;;;;;;;6.32;2.00;;;;;;;11.73;100.00;100219.03;5014972;28;20094;-95
2022/12/31 09:11:36;;;;;;;4.05;1.95;;;;;;;11.91;100.00;100236.69;4949866;28;20043;-93
2022/12/31 09:14:33;;;;;;;3.47;1.80;;;;;;;11.92;100.00;100249.47;4964109;28;20073;-96
2022/12/31 09:17:38;;;;;;;3.80;2.55;;;;;;;11.82;100.00;100236.25;4991980;28;20035;-94
2022/12/31 09:20:05;;;;;;;4.80;2.15;;;;;;;11.87;100.00;100226.63;5000156;28;20023;-95
2022/12/31 09:22:31;;;;;;;3.22;1.70;;;;;;;11.90;100.00;100229.44;5003752;28;20027;-95
2022/12/31 09:24:56;;;;;;;2.08;1.17;;;;;;;11.96;100.00;100244.66;4984799;28;20134;-94
2022/12/31 09:27:42;;;;;;;3.97;2.75;;;;;;;12.06;100.00;100275.91;4983361;28;20030;-94
2022/12/31 09:30:11;;;;;;;6.38;1.73;;;;;;;11.96;100.00;100264.31;4980321;28;20099;-96
2022/12/31 09:32:52;;;;;;;4.05;1.70;;;;;;;12.08;100.00;100262.28;4985426;28;20030;-94
2022/12/31 09:35:32;;;;;;;10.88;3.70;;;;;;;11.90;100.00;100254.69;5000549;28;20022;-96
2022/12/31 09:38:51;;;;;;;8.32;2.63;;;;;;;12.10;100.00;100280.31;4980420;28;20574;-95
2022/12/31 09:41:55;;;;;;;5.25;2.03;;;;;;;12.05;100.00;100280.72;4940023;28;20049;-95
2022/12/31 09:44:39;;;;;;;4.13;2.13;;;;;;;12.19;100.00;100313.56;4988585;28;20061;-94
2022/12/31 09:47:35;;;;;;;4.90;1.60;;;;;;;12.07;100.00;100283.13;4999059;28;20027;-94
2022/12/31 09:50:41;;;;;;;3.70;2.35;;;;;;;12.25;100.00;100316.75;5007379;28;20027;-92
2022/12/31 09:53:17;;;;;;;10.57;3.88;;;;;;;12.32;100.00;100316.75;5005233;28;20038;-92
2022/12/31 09:56:14;;;;;;;4.78;1.80;;;;;;;12.33;100.00;100299.53;5001659;28;20042;-93
2022/12/31 09:58:58;;;;;;;3.45;1.95;;;;;;;12.38;100.00;100315.94;4994743;28;20025;-92
2022/12/31 10:02:02;;;;;;;3.50;2.20;;;;;;;12.52;100.00;100314.28;4988293;28;20406;-93
2022/12/31 10:04:56;;;;;;;6.53;2.88;;;;;;;12.56;100.00;100313.06;4983736;28;20035;-89
2022/12/31 10:07:54;;;;;;;6.40;3.22;;;;;;;12.38;100.00;100315.16;4989543;28;20422;-91
2022/12/31 10:10:33;;;;;;;4.40;3.53;;;;;;;12.53;100.00;100324.34;5005909;28;20041;-91
2022/12/31 10:13:27;;;;;;;11.27;3.85;;;;;;;12.70;100.00;100331.91;5004843;28;20029;-88
2022/12/31 10:16:34;;;;;;;6.63;3.28;;;;;;;12.67;100.00;100332.72;5000523;28;20030;-91
2022/12/31 10:19:15;;;;;;;5.03;2.88;;;;;;;12.82;100.00;100333.47;4963762;28;20035;-88
2022/12/31 10:22:25;;;;;;;8.05;4.07;;;;;;;12.72;100.00;100337.13;5004823;28;20026;-88
2022/12/31 10:25:00;;;;;;;10.80;4.82;;;;;;;12.79;100.00;100339.88;4942200;28;20121;-88
2022/12/31 10:27:47;;;;;;;10.80;5.00;;;;;;;12.82;100.00;100351.13;4999375;28;20030;-91
2022/12/31 10:30:15;;;;;;;6.35;3.47;;;;;;;12.90;100.00;100334.22;5001114;28;20041;-87
2022/12/31 10:33:06;;;;;;;6.78;3.17;;;;;;;12.85;100.00;100338.25;4998741;28;20394;-90
2022/12/31 10:35:42;;;;;;;6.13;3.88;;;;;;;12.75;100.00;100339.88;5002284;28;20679;-84
2022/12/31 10:38:16;;;;;;;10.95;3.67;;;;;;;12.76;100.00;100319.03;4988792;28;20022;-82
2022/12/31 10:41:23;;;;;;;3.22;1.95;;;;;;;12.71;100.00;100313.84;4985689;28;20522;-80
2022/12/31 10:44:07;;;;;;;2.63;1.95;;;;;;;12.65;100.00;100323.91;4959432;28;20036;-80
2022/12/31 10:46:47;;;;;;;8.50;2.33;;;;;;;12.58;100.00;100335.13;5000802;28;20478;-80
2022/12/31 10:49:34;;;;;;;3.80;1.58;;;;;;;12.57;100.00;100333.56;4988069;28;20475;-80
2022/12/31 10:52:14;;;;;;;9.30;2.20;;;;;;;12.53;100.00;100332.75;4998308;28;20069;-80
2022/12/31 10:55:17;;;;;;;7.72;2.47;;;;;;;12.53;100.00;100344.00;5010136;28;20112;-80
2022/12/31 10:58:02;;;;;;;11.90;3.03;;;;;;;12.52;100.00;100337.56;4980216;28;20022;-80
2022/12/31 11:00:50;;;;;;;5.93;3.13;;;;;;;12.54;100.00;100323.13;4971735;28;20030;-80
2022/12/31 11:03:31;;;;;;;10.75;4.38;;;;;;;12.61;100.00;100335.13;4995636;28;20397;-79
2022/12/31 11:06:44;;;;;;;8.48;5.20;;;;;;;12.76;100.00;100326.69;4985750;28;20047;-80
2022/12/31 11:09:54;;;;;;;11.85;5.15;;;;;;;12.84;100.00;100333.06;4989753;28;20030;-80
2022/12/31 11:12:31;;;;;;;8.80;5.05;;;;;;;12.92;100.00;100337.44;5000640;28;20027;-80
2022/12/31 11:15:33;;;;;;;7.40;4.47;;;;;;;12.91;100.00;100333.03;4975802;28;20441;-80
2022/12/31 11:18:16;;;;;;;9.77;5.10;;;;;;;12.94;100.00;100335.03;4986498;28;20244;-82
2022/12/31 11:21:20;;;;;;;12.73;6.20;;;;;;;12.95;100.00;100340.25;4985861;28;20080;-82
2022/12/31 11:23:52;;;;;;;15.77;5.65;;;;;;;12.90;100.00;100345.47;4996088;28;20054;-82
2022/12/31 11:26:38;;;;;;;15.00;5.80;;;;;;;12.97;100.00;100328.59;4998711;28;20462;-83
2022/12/31 11:29:12;;;;;;;14.55;6.10;;;;;;;12.89;100.00;100327.03;4975925;28;20478;-81
2022/12/31 11:32:00;;;;;;;13.88;6.85;;;;;;;12.99;100.00;100343.84;4986634;28;20039;-80
2022/12/31 11:34:53;;;;;;;12.68;5.68;;;;;;;13.04;100.00;100339.78;4974554;28;20037;-81
2022/12/31 11:37:48;;;;;;;11.10;6.13;;;;;;;13.11;100.00;100345.41;4995969;28;20019;-82
2022/12/31 11:40:39;;;;;;;9.82;6.50;;;;;;;13.11;100.00;100345.41;4983477;28;20078;-82
2022/12/31 11:43:34;;;;;;;17.48;6.28;;;;;;;13.04;100.00;100333.38;4986815;28;20121;-80
2022/12/31 11:46:34;;;;;;;11.98;5.80;;;;;;;13.14;100.00;100349.41;4987212;28;20033;-80
2022/12/31 11:49:05;;;;;;;15.57;7.95;;;;;;;13.13;100.00;100357.00;5000444;28;20041;-81
2022/12/31 11:51:41;;;;;;;9.93;4.85;;;;;;;13.35;100.00;100359.75;4983904;28;22314;-85
2022/12/31 11:54:40;;;;;;;15.30;8.73;;;;;;;13.29;100.00;100359.38;4985660;28;20022;-86
2022/12/31 11:57:37;;;;;;;20.92;8.85;;;;;;;13.16;100.00;100353.41;4989088;28;20152;-95
2022/12/31 12:00:14;;;;;;;17.73;10.20;;;;;;;12.92;100.00;100332.63;4988420;28;20043;-94
2022/12/31 12:02:46;;;;;;;21.20;10.88;;;;;;;13.01;100.00;100349.06;4986523;28;20026;-93
2022/12/31 12:05:19;;;;;;;11.60;6.80;;;;;;;12.90;100.00;100328.63;4992720;28;20066;-94
2022/12/31 12:07:45;;;;;;;11.23;7.10;;;;;;;12.90;100.00;100343.47;5011705;28;20030;-92